N8149M KBHM-KBHM
Flight info
| Callsign | N8149M |
|---|---|
| Flight time | 0h 17m |
| Altitude | |
| Route | PATTERN WORK |
| Aircraft | C404/L-DOV/C |
Departure
| Time | 2026-05-06 23:03 |
|---|---|
| Airport | Birmingham-Shuttlesworth International Airport (KBHM) |
Arrival
| Time | 2026-05-06 23:20 |
|---|---|
| Airport | Birmingham-Shuttlesworth International Airport (KBHM) |
| Time | Latitude | Longitude | Altitude | Speed | Heading |
|---|---|---|---|---|---|
| 2026-05-06 22:56 | 33.56394 | -86.74590 | 619 ft | 12 kts | 359° |
| 2026-05-06 22:57 | 33.56479 | -86.74590 | 621 ft | 12 kts | 359° |
| 2026-05-06 22:57 | 33.56564 | -86.74593 | 623 ft | 12 kts | 358° |
| 2026-05-06 22:57 | 33.56645 | -86.74591 | 625 ft | 11 kts | 3° |
| 2026-05-06 22:57 | 33.56735 | -86.74586 | 628 ft | 13 kts | 1° |
| 2026-05-06 22:58 | 33.56785 | -86.74549 | 634 ft | 7 kts | 54° |
| 2026-05-06 22:58 | 33.56822 | -86.74483 | 630 ft | 17 kts | 63° |
| 2026-05-06 22:58 | 33.56912 | -86.74312 | 632 ft | 27 kts | 58° |
| 2026-05-06 22:58 | 33.57011 | -86.74127 | 634 ft | 27 kts | 61° |
| 2026-05-06 22:59 | 33.57104 | -86.73979 | 632 ft | 26 kts | 59° |
| 2026-05-06 22:59 | 33.57197 | -86.73838 | 634 ft | 17 kts | 28° |
| 2026-05-06 22:59 | 33.57224 | -86.73858 | 639 ft | 2 kts | 276° |
| 2026-05-06 22:59 | 33.57260 | -86.73856 | 634 ft | 7 kts | 337° |
| 2026-05-06 23:00 | 33.57274 | -86.73866 | 635 ft | 0 kts | 330° |
| 2026-05-06 23:02 | 33.57323 | -86.73915 | 636 ft | 15 kts | 295° |
| 2026-05-06 23:02 | 33.57281 | -86.74031 | 635 ft | 30 kts | 234° |
| 2026-05-06 23:03 | 33.57038 | -86.74456 | 630 ft | 90 kts | 235° |
| 2026-05-06 23:03 | 33.56622 | -86.75166 | 777 ft | 114 kts | 226° |
| 2026-05-06 23:03 | 33.56120 | -86.76010 | 1090 ft | 135 kts | 235° |
| 2026-05-06 23:03 | 33.55639 | -86.77023 | 1422 ft | 147 kts | 238° |
| 2026-05-06 23:04 | 33.55400 | -86.78218 | 1861 ft | 148 kts | 281° |
| 2026-05-06 23:04 | 33.56190 | -86.78893 | 2657 ft | 149 kts | 358° |
| 2026-05-06 23:04 | 33.57085 | -86.78220 | 2923 ft | 176 kts | 43° |
| 2026-05-06 23:04 | 33.58019 | -86.77085 | 2971 ft | 197 kts | 46° |
| 2026-05-06 23:05 | 33.58923 | -86.75910 | 3352 ft | 199 kts | 52° |
| 2026-05-06 23:05 | 33.59801 | -86.74634 | 3676 ft | 195 kts | 55° |
| 2026-05-06 23:05 | 33.60454 | -86.73173 | 3622 ft | 204 kts | 75° |
| 2026-05-06 23:05 | 33.60694 | -86.71453 | 3324 ft | 210 kts | 115° |
| 2026-05-06 23:06 | 33.59679 | -86.71203 | 2887 ft | 186 kts | 224° |
| 2026-05-06 23:06 | 33.58663 | -86.72178 | 1873 ft | 186 kts | 212° |
| 2026-05-06 23:06 | 33.57884 | -86.73054 | 1128 ft | 125 kts | 237° |
| 2026-05-06 23:06 | 33.57435 | -86.73776 | 816 ft | 97 kts | 229° |
| 2026-05-06 23:07 | 33.57065 | -86.74405 | 658 ft | 81 kts | 230° |
| 2026-05-06 23:07 | 33.56782 | -86.74878 | 633 ft | 72 kts | 237° |
| 2026-05-06 23:07 | 33.56446 | -86.75434 | 702 ft | 87 kts | 226° |
| 2026-05-06 23:07 | 33.56094 | -86.76149 | 863 ft | 118 kts | 243° |
| 2026-05-06 23:08 | 33.55589 | -86.77077 | 1076 ft | 145 kts | 233° |
| 2026-05-06 23:08 | 33.55742 | -86.78119 | 1597 ft | 159 kts | 343° |
| 2026-05-06 23:08 | 33.56741 | -86.77584 | 2004 ft | 171 kts | 43° |
| 2026-05-06 23:08 | 33.57469 | -86.76400 | 2308 ft | 182 kts | 60° |
| 2026-05-06 23:09 | 33.58175 | -86.75168 | 2669 ft | 177 kts | 51° |
| 2026-05-06 23:09 | 33.58987 | -86.74051 | 2722 ft | 179 kts | 51° |
| 2026-05-06 23:09 | 33.59736 | -86.72992 | 3287 ft | 142 kts | 53° |
| 2026-05-06 23:09 | 33.60122 | -86.71738 | 2689 ft | 187 kts | 99° |
| 2026-05-06 23:10 | 33.59528 | -86.70819 | 2569 ft | 156 kts | 196° |
| 2026-05-06 23:10 | 33.58695 | -86.71742 | 2082 ft | 181 kts | 233° |
| 2026-05-06 23:10 | 33.57954 | -86.72938 | 1792 ft | 174 kts | 228° |
| 2026-05-06 23:10 | 33.57200 | -86.74188 | 810 ft | 177 kts | 232° |
| 2026-05-06 23:11 | 33.56583 | -86.75260 | 637 ft | 135 kts | 232° |
| 2026-05-06 23:11 | 33.56093 | -86.76099 | 681 ft | 124 kts | 234° |
| 2026-05-06 23:11 | 33.55545 | -86.76999 | 1020 ft | 140 kts | 231° |
| 2026-05-06 23:11 | 33.55099 | -86.78039 | 1507 ft | 144 kts | 263° |
| 2026-05-06 23:12 | 33.55649 | -86.79052 | 1861 ft | 174 kts | 348° |
| 2026-05-06 23:12 | 33.56688 | -86.78248 | 1939 ft | 197 kts | 54° |
| 2026-05-06 23:12 | 33.57460 | -86.76790 | 1874 ft | 215 kts | 63° |
| 2026-05-06 23:12 | 33.58193 | -86.75242 | 1919 ft | 212 kts | 61° |
| 2026-05-06 23:13 | 33.58876 | -86.73697 | 1748 ft | 206 kts | 67° |
| 2026-05-06 23:13 | 33.59382 | -86.72258 | 1987 ft | 161 kts | 121° |
| 2026-05-06 23:13 | 33.58543 | -86.72329 | 1346 ft | 156 kts | 210° |
| 2026-05-06 23:13 | 33.57778 | -86.73192 | 972 ft | 143 kts | 232° |
| 2026-05-06 23:14 | 33.57264 | -86.74077 | 776 ft | 114 kts | 230° |
| 2026-05-06 23:14 | 33.56848 | -86.74784 | 636 ft | 93 kts | 232° |
| 2026-05-06 23:14 | 33.56499 | -86.75379 | 630 ft | 97 kts | 238° |
| 2026-05-06 23:14 | 33.56059 | -86.76095 | 801 ft | 119 kts | 228° |
| 2026-05-06 23:15 | 33.55567 | -86.76943 | 1323 ft | 125 kts | 234° |
| 2026-05-06 23:15 | 33.55390 | -86.77954 | 1593 ft | 151 kts | 311° |
| 2026-05-06 23:15 | 33.56337 | -86.77762 | 2123 ft | 163 kts | 51° |
| 2026-05-06 23:15 | 33.57080 | -86.76524 | 1977 ft | 196 kts | 60° |
| 2026-05-06 23:16 | 33.57795 | -86.75051 | 1859 ft | 212 kts | 65° |
| 2026-05-06 23:16 | 33.58461 | -86.73418 | 1566 ft | 226 kts | 69° |
| 2026-05-06 23:16 | 33.58048 | -86.72322 | 1987 ft | 131 kts | 195° |
| 2026-05-06 23:16 | 33.57743 | -86.73272 | 1032 ft | 142 kts | 226° |
| 2026-05-06 23:17 | 33.57200 | -86.74187 | 705 ft | 127 kts | 233° |
| 2026-05-06 23:17 | 33.56734 | -86.74966 | 634 ft | 103 kts | 231° |
| 2026-05-06 23:17 | 33.56344 | -86.75660 | 718 ft | 104 kts | 230° |
| 2026-05-06 23:17 | 33.55884 | -86.76440 | 828 ft | 130 kts | 229° |
| 2026-05-06 23:18 | 33.55439 | -86.77317 | 1401 ft | 127 kts | 266° |
| 2026-05-06 23:18 | 33.56174 | -86.77546 | 1582 ft | 157 kts | 50° |
| 2026-05-06 23:18 | 33.56873 | -86.76385 | 1597 ft | 186 kts | 57° |
| 2026-05-06 23:18 | 33.57602 | -86.75005 | 1474 ft | 205 kts | 60° |
| 2026-05-06 23:19 | 33.58423 | -86.73717 | 1796 ft | 185 kts | 49° |
| 2026-05-06 23:19 | 33.59064 | -86.72466 | 2029 ft | 154 kts | 87° |
| 2026-05-06 23:19 | 33.58718 | -86.71796 | 2011 ft | 93 kts | 220° |
| 2026-05-06 23:19 | 33.58267 | -86.72412 | 1294 ft | 113 kts | 225° |
| 2026-05-06 23:20 | 33.57808 | -86.73177 | 921 ft | 108 kts | 227° |
| 2026-05-06 23:20 | 33.57377 | -86.73875 | 726 ft | 101 kts | 229° |
| 2026-05-06 23:20 | 33.57122 | -86.74313 | 657 ft | 92 kts | 230° |
| 2026-05-06 23:20 | 33.56848 | -86.74790 | 635 ft | 34 kts | 237° |
| 2026-05-06 23:21 | 33.56703 | -86.74857 | 628 ft | 0 kts | 176° |
| 2026-05-06 23:21 | 33.56630 | -86.74842 | 627 ft | 16 kts | 114° |
| 2026-05-06 23:22 | 33.56708 | -86.74664 | 628 ft | 28 kts | 49° |
| 2026-05-06 23:22 | 33.56667 | -86.74589 | 626 ft | 14 kts | 170° |
| 2026-05-06 23:22 | 33.56643 | -86.74487 | 625 ft | 21 kts | 94° |
| 2026-05-06 23:22 | 33.56619 | -86.74400 | 627 ft | 0 kts | 186° |